Time;durP1;ratioP1;P1;durP2;ratioP2;P2;SDS_P1;SDS_P2;PMS_P1;PMS_P2;Temp;Humidity;BMP_temperature;BMP_pressure;BME280_temperature;BME280_humidity;BME280_pressure;Samples;Min_cycle;Max_cycle;Signal;HPM_P1;HPM_P2
2021/11/24 00:00:30;;;;;;;28.02;20.00;;;6.20;99.90;;;;;;5044823;28;20477;-55
2021/11/24 00:02:56;;;;;;;28.33;20.27;;;6.20;99.90;;;;;;5043222;28;20614;-54
2021/11/24 00:05:22;;;;;;;29.10;20.20;;;6.20;99.90;;;;;;5045477;28;20721;-52
2021/11/24 00:07:48;;;;;;;30.63;21.52;;;6.20;99.90;;;;;;5042082;28;20025;-52
2021/11/24 00:10:15;;;;;;;29.73;21.17;;;6.20;99.90;;;;;;5043601;28;20017;-54
2021/11/24 00:12:41;;;;;;;27.27;20.35;;;6.20;99.90;;;;;;5044303;28;20025;-59
2021/11/24 00:15:08;;;;;;;29.45;20.60;;;6.20;99.90;;;;;;5044265;28;20108;-53
2021/11/24 00:17:34;;;;;;;28.60;21.05;;;6.20;99.90;;;;;;5042569;28;20105;-55
2021/11/24 00:20:00;;;;;;;27.92;20.90;;;6.20;99.90;;;;;;5042565;28;20033;-49
2021/11/24 00:22:26;;;;;;;30.42;21.75;;;6.20;99.90;;;;;;5043199;28;20405;-55
2021/11/24 00:24:51;;;;;;;33.00;22.63;;;6.20;99.90;;;;;;5043761;28;20021;-56
2021/11/24 00:27:17;;;;;;;31.58;22.48;;;6.20;99.90;;;;;;5043573;28;20060;-60
2021/11/24 00:29:43;;;;;;;30.55;20.92;;;6.20;99.90;;;;;;5051748;28;20562;-56
2021/11/24 00:32:09;;;;;;;29.10;22.30;;;6.20;99.90;;;;;;5050332;28;20764;-56
2021/11/24 00:34:34;;;;;;;31.63;22.83;;;6.20;99.90;;;;;;5046193;28;20435;-56
2021/11/24 00:37:00;;;;;;;32.53;22.73;;;6.10;99.90;;;;;;5046245;28;20488;-55
2021/11/24 00:39:26;;;;;;;35.67;24.63;;;6.20;99.90;;;;;;5039571;28;20033;-53
2021/11/24 00:41:53;;;;;;;33.03;23.02;;;6.20;99.90;;;;;;5040476;28;20568;-56
2021/11/24 00:44:20;;;;;;;32.47;22.70;;;6.20;99.90;;;;;;5036937;28;20109;-59
2021/11/24 00:46:46;;;;;;;33.03;22.65;;;6.10;99.90;;;;;;5052058;28;20307;-61
2021/11/24 00:49:11;;;;;;;33.13;22.48;;;6.10;99.90;;;;;;5058247;28;20288;-59
2021/11/24 00:51:38;;;;;;;38.33;24.42;;;6.10;99.90;;;;;;5057330;28;20420;-55
2021/11/24 00:54:03;;;;;;;36.30;23.27;;;6.20;99.90;;;;;;5047348;28;20056;-55
2021/11/24 00:56:29;;;;;;;35.63;24.05;;;6.10;99.90;;;;;;5046815;28;20041;-60
2021/11/24 00:58:55;;;;;;;31.52;22.92;;;6.20;99.90;;;;;;5046508;28;20056;-55
2021/11/24 01:01:20;;;;;;;35.40;24.02;;;6.20;99.90;;;;;;5048744;28;20421;-56
2021/11/24 01:03:46;;;;;;;39.30;25.65;;;6.10;99.90;;;;;;5048827;28;20028;-60
2021/11/24 01:06:12;;;;;;;32.67;23.15;;;6.10;99.90;;;;;;5046074;28;20039;-58
2021/11/24 01:08:38;;;;;;;36.38;24.58;;;6.10;99.90;;;;;;5059576;28;20377;-54
2021/11/24 01:11:03;;;;;;;37.75;25.95;;;6.10;99.90;;;;;;5057358;28;20037;-51
2021/11/24 01:13:29;;;;;;;35.10;24.25;;;6.10;99.90;;;;;;5068867;28;20033;-58
2021/11/24 01:15:55;;;;;;;37.50;25.38;;;6.10;99.90;;;;;;5053265;28;20036;-54
2021/11/24 01:18:22;;;;;;;38.13;24.85;;;6.20;99.90;;;;;;5061180;28;20396;-53
2021/11/24 01:20:48;;;;;;;36.47;24.02;;;6.10;99.90;;;;;;5058055;28;20021;-53
2021/11/24 01:23:15;;;;;;;38.03;25.40;;;6.10;99.90;;;;;;5052082;28;20036;-51
2021/11/24 01:25:41;;;;;;;38.67;25.10;;;6.10;99.90;;;;;;5068747;28;20057;-57
2021/11/24 01:28:06;;;;;;;37.45;25.80;;;6.00;99.90;;;;;;5047555;28;20183;-59
2021/11/24 01:30:33;;;;;;;40.90;26.15;;;6.00;99.90;;;;;;5052670;28;20043;-55
2021/11/24 01:32:58;;;;;;;37.30;25.05;;;6.10;99.90;;;;;;5056374;28;20429;-52
2021/11/24 01:35:24;;;;;;;38.85;25.60;;;6.10;99.90;;;;;;5065969;28;20036;-52
2021/11/24 01:37:50;;;;;;;39.42;25.67;;;6.10;99.90;;;;;;5056980;28;20384;-54
2021/11/24 01:40:16;;;;;;;39.67;24.45;;;6.00;99.90;;;;;;5063726;28;20064;-58
2021/11/24 01:42:42;;;;;;;38.63;25.13;;;6.00;99.90;;;;;;5066325;28;20503;-53
2021/11/24 01:45:09;;;;;;;39.92;26.05;;;6.10;99.90;;;;;;5056722;28;20033;-54
2021/11/24 01:47:36;;;;;;;38.10;25.05;;;6.10;99.90;;;;;;5068290;28;20038;-55
2021/11/24 01:50:04;;;;;;;39.95;24.88;;;6.20;99.90;;;;;;5058060;28;20032;-54
2021/11/24 01:52:31;;;;;;;38.58;25.08;;;6.20;99.90;;;;;;5061983;28;20041;-56
2021/11/24 01:54:57;;;;;;;36.78;24.00;;;6.10;99.90;;;;;;5064316;28;20042;-58
2021/11/24 01:57:27;;;;;;;38.08;25.75;;;6.10;99.90;;;;;;5055630;28;20033;-51
2021/11/24 01:59:58;;;;;;;37.53;25.25;;;6.10;99.90;;;;;;5065624;28;20108;-53
2021/11/24 02:02:25;;;;;;;42.45;25.67;;;6.20;99.90;;;;;;5043341;28;20109;-54
2021/11/24 02:04:51;;;;;;;38.78;25.65;;;6.00;99.90;;;;;;5059283;28;20112;-51
2021/11/24 02:07:17;;;;;;;38.67;25.75;;;6.10;99.90;;;;;;5068432;28;20167;-54
2021/11/24 02:09:43;;;;;;;39.63;24.67;;;6.10;99.90;;;;;;5056021;28;20624;-53
2021/11/24 02:12:11;;;;;;;37.05;25.15;;;6.10;99.90;;;;;;5064022;28;20044;-50
2021/11/24 02:14:38;;;;;;;36.45;25.58;;;6.10;99.90;;;;;;5062928;28;20045;-53
2021/11/24 02:17:05;;;;;;;36.88;24.52;;;6.20;99.90;;;;;;5056918;28;20377;-56
2021/11/24 02:19:32;;;;;;;39.75;25.73;;;6.20;99.90;;;;;;5067760;28;20070;-56
2021/11/24 02:21:59;;;;;;;38.75;26.08;;;6.10;99.90;;;;;;5051652;28;20023;-55
2021/11/24 02:24:31;;;;;;;41.65;26.95;;;6.00;99.90;;;;;;5060833;28;20016;-56
2021/11/24 02:26:57;;;;;;;41.13;25.95;;;6.00;99.90;;;;;;5059824;28;20120;-52
2021/11/24 02:29:23;;;;;;;41.85;25.90;;;6.00;99.90;;;;;;5071844;28;20399;-54
2021/11/24 02:31:53;;;;;;;42.08;26.50;;;5.90;99.90;;;;;;5059861;28;20123;-55
2021/11/24 02:34:20;;;;;;;41.53;25.10;;;5.90;99.90;;;;;;5067187;28;20108;-54
2021/11/24 02:36:46;;;;;;;43.72;26.80;;;6.10;99.90;;;;;;5067227;28;20064;-55
2021/11/24 02:39:13;;;;;;;39.50;26.63;;;6.10;99.90;;;;;;5059323;28;20029;-54
2021/11/24 02:41:39;;;;;;;38.70;27.15;;;6.10;99.90;;;;;;5073245;28;20029;-55
2021/11/24 02:44:37;;;;;;;37.78;25.33;;;6.10;99.90;;;;;;5068680;28;20507;-54
2021/11/24 02:47:19;;;;;;;39.97;25.73;;;6.20;99.90;;;;;;5061752;28;20399;-56
2021/11/24 02:49:51;;;;;;;39.45;25.58;;;6.20;99.90;;;;;;5025034;28;20028;-58
2021/11/24 02:52:18;;;;;;;42.70;27.42;;;6.20;99.90;;;;;;5066918;28;20127;-54
2021/11/24 02:54:52;;;;;;;40.33;26.90;;;6.20;99.90;;;;;;5067164;28;20372;-52
2021/11/24 02:57:18;;;;;;;39.30;25.58;;;6.20;99.90;;;;;;5057149;28;20041;-54
2021/11/24 02:59:44;;;;;;;41.13;26.08;;;6.20;99.90;;;;;;5070841;28;20029;-53
2021/11/24 03:02:10;;;;;;;43.13;27.20;;;6.20;99.90;;;;;;5062039;28;20021;-55
2021/11/24 03:04:35;;;;;;;40.00;26.95;;;6.10;99.90;;;;;;5062712;28;20441;-55
2021/11/24 03:07:02;;;;;;;40.38;25.25;;;6.20;99.90;;;;;;5067965;28;20040;-56
2021/11/24 03:09:28;;;;;;;43.60;28.15;;;6.30;99.90;;;;;;5071213;28;20092;-51
2021/11/24 03:11:55;;;;;;;43.95;25.95;;;6.20;99.90;;;;;;5059835;28;20620;-54
2021/11/24 03:14:20;;;;;;;41.70;26.88;;;6.30;99.90;;;;;;5065858;28;20114;-52
2021/11/24 03:16:47;;;;;;;41.08;25.83;;;6.30;99.90;;;;;;5066326;28;20063;-56
2021/11/24 03:19:13;;;;;;;43.60;26.63;;;6.20;99.90;;;;;;5056898;28;20029;-56
2021/11/24 03:21:38;;;;;;;41.95;26.60;;;6.10;99.90;;;;;;5066425;28;20033;-56
2021/11/24 03:24:04;;;;;;;41.08;25.90;;;6.10;99.90;;;;;;5054579;28;20110;-56
2021/11/24 03:26:30;;;;;;;41.92;26.77;;;6.20;99.90;;;;;;5054630;28;20397;-54
2021/11/24 03:28:56;;;;;;;39.70;26.05;;;6.20;99.90;;;;;;5054319;28;20049;-56
2021/11/24 03:31:21;;;;;;;41.80;25.75;;;6.20;99.90;;;;;;5054338;28;20037;-51
2021/11/24 03:33:47;;;;;;;43.33;26.40;;;6.30;99.90;;;;;;5054345;28;20037;-51
2021/11/24 03:36:13;;;;;;;43.22;26.95;;;6.30;99.90;;;;;;5054224;28;20040;-54
2021/11/24 03:38:39;;;;;;;42.67;27.63;;;6.10;99.90;;;;;;5053151;28;20040;-56
2021/11/24 03:41:04;;;;;;;43.97;26.35;;;6.00;99.90;;;;;;5054277;28;20112;-56
2021/11/24 03:43:30;;;;;;;45.17;28.17;;;6.10;99.90;;;;;;5074465;28;20071;-54
2021/11/24 03:45:56;;;;;;;42.28;25.90;;;6.10;99.90;;;;;;5074133;28;20583;-58
2021/11/24 03:48:22;;;;;;;38.72;25.58;;;6.20;99.90;;;;;;5074346;28;20164;-52
2021/11/24 03:50:48;;;;;;;39.47;25.45;;;6.30;99.90;;;;;;5073963;28;20070;-55
2021/11/24 03:53:13;;;;;;;38.88;24.50;;;6.20;99.90;;;;;;5074133;28;20541;-52
2021/11/24 03:55:39;;;;;;;39.83;25.77;;;6.30;99.90;;;;;;5074368;28;20094;-53
2021/11/24 03:58:05;;;;;;;39.55;25.45;;;6.30;99.90;;;;;;5073827;28;20041;-56
2021/11/24 04:00:33;;;;;;;40.42;25.83;;;6.40;99.90;;;;;;5073597;28;20033;-54
2021/11/24 04:02:59;;;;;;;39.20;25.27;;;6.40;99.90;;;;;;5074077;28;20032;-58
2021/11/24 04:05:25;;;;;;;39.90;25.50;;;6.40;99.90;;;;;;5074069;28;20036;-59
2021/11/24 04:07:51;;;;;;;39.38;25.70;;;6.40;99.90;;;;;;5065332;28;20485;-54
2021/11/24 04:10:17;;;;;;;41.90;26.00;;;6.40;99.90;;;;;;5051992;28;20056;-59
2021/11/24 04:12:43;;;;;;;43.65;26.67;;;6.10;99.90;;;;;;5053896;28;20067;-60
2021/11/24 04:15:14;;;;;;;44.85;27.27;;;6.10;99.90;;;;;;5054061;28;20041;-58
2021/11/24 04:17:41;;;;;;;45.25;27.10;;;6.10;99.90;;;;;;5053303;28;20045;-55
2021/11/24 04:20:10;;;;;;;43.13;26.02;;;6.20;99.90;;;;;;5053189;28;20086;-54
2021/11/24 04:22:35;;;;;;;44.33;26.73;;;6.20;99.90;;;;;;5053390;28;20040;-51
2021/11/24 04:25:03;;;;;;;40.72;27.00;;;6.20;99.90;;;;;;5053489;28;20026;-55
2021/11/24 04:27:29;;;;;;;45.35;27.08;;;6.30;99.90;;;;;;5053798;28;20037;-56
2021/11/24 04:29:54;;;;;;;41.92;26.92;;;6.30;99.90;;;;;;5053351;28;20041;-56
2021/11/24 04:32:20;;;;;;;42.90;25.75;;;6.20;99.90;;;;;;5053835;28;20041;-54
2021/11/24 04:34:46;;;;;;;45.45;27.08;;;6.00;99.90;;;;;;5053384;28;20508;-58
2021/11/24 04:37:12;;;;;;;44.55;26.88;;;6.00;99.90;;;;;;5053456;28;20037;-55
2021/11/24 04:39:38;;;;;;;43.83;27.63;;;6.00;99.90;;;;;;5051738;28;20129;-55
2021/11/24 04:42:04;;;;;;;51.20;28.30;;;6.00;99.90;;;;;;5062366;28;20500;-56
2021/11/24 04:44:30;;;;;;;46.75;28.30;;;6.00;99.90;;;;;;5073149;28;20394;-55
2021/11/24 04:46:55;;;;;;;45.25;27.02;;;6.10;99.90;;;;;;5073234;28;20468;-57
2021/11/24 04:49:21;;;;;;;42.83;26.83;;;6.10;99.90;;;;;;5071866;28;20128;-55
2021/11/24 04:51:47;;;;;;;46.50;28.58;;;6.10;99.90;;;;;;5071411;28;20372;-55
2021/11/24 04:54:12;;;;;;;43.03;27.02;;;6.10;99.90;;;;;;5072697;28;20039;-53
2021/11/24 04:56:38;;;;;;;44.28;27.00;;;6.10;99.90;;;;;;5073137;28;20680;-57
2021/11/24 04:59:04;;;;;;;46.13;27.77;;;6.10;99.90;;;;;;5072614;28;20062;-54
2021/11/24 05:01:30;;;;;;;42.10;26.83;;;6.10;99.90;;;;;;5073078;28;20044;-56
2021/11/24 05:03:55;;;;;;;43.08;26.90;;;6.10;99.90;;;;;;5073137;28;20032;-54
2021/11/24 05:06:22;;;;;;;46.13;27.65;;;6.10;99.90;;;;;;5071356;28;20373;-56
2021/11/24 05:08:48;;;;;;;45.85;26.60;;;6.20;99.90;;;;;;5056437;28;20582;-57
2021/11/24 05:11:16;;;;;;;43.53;27.38;;;6.30;99.90;;;;;;5052685;28;20029;-57
2021/11/24 05:13:55;;;;;;;43.70;27.17;;;6.30;99.90;;;;;;5052804;28;20037;-55
2021/11/24 05:16:23;;;;;;;41.05;25.30;;;6.30;99.90;;;;;;5052402;28;20513;-55
2021/11/24 05:18:49;;;;;;;39.53;25.88;;;6.30;99.90;;;;;;5052455;28;20025;-54
2021/11/24 05:21:30;;;;;;;43.97;27.33;;;6.40;99.90;;;;;;5050557;28;20036;-60
2021/11/24 05:23:58;;;;;;;46.33;26.75;;;6.40;99.90;;;;;;5052978;28;20032;-55
2021/11/24 05:26:25;;;;;;;47.53;28.92;;;6.30;99.90;;;;;;5052761;28;20032;-57
2021/11/24 05:28:51;;;;;;;45.45;28.02;;;6.20;99.90;;;;;;5052639;28;20114;-65
2021/11/24 05:31:17;;;;;;;48.40;29.55;;;6.10;99.90;;;;;;5049671;28;20048;-57
2021/11/24 05:33:43;;;;;;;46.53;29.20;;;6.00;99.90;;;;;;5051024;28;20040;-63
2021/11/24 05:36:09;;;;;;;47.13;28.40;;;6.00;99.90;;;;;;5052246;28;20056;-56
2021/11/24 05:38:35;;;;;;;46.42;29.88;;;5.90;99.90;;;;;;5052539;28;20518;-59
2021/11/24 05:41:01;;;;;;;50.00;29.48;;;6.00;99.90;;;;;;5052145;28;20123;-57
2021/11/24 05:43:29;;;;;;;44.65;27.27;;;6.10;99.90;;;;;;5072188;28;20580;-53
2021/11/24 05:48:21;;;;;;;48.17;27.50;;;6.20;99.90;;;;;;5071871;28;20111;-56
2021/11/24 05:50:48;;;;;;;44.03;27.20;;;6.20;99.90;;;;;;5071944;28;20048;-58
2021/11/24 05:53:16;;;;;;;43.97;27.17;;;6.30;99.90;;;;;;5072285;28;20043;-55
2021/11/24 05:55:42;;;;;;;48.45;27.58;;;6.20;99.90;;;;;;5071904;28;20037;-57
2021/11/24 05:58:12;;;;;;;45.38;27.73;;;6.20;99.90;;;;;;5072306;28;20492;-54
2021/11/24 06:00:38;;;;;;;45.95;28.85;;;6.30;99.90;;;;;;5060387;28;20033;-54
2021/11/24 06:03:04;;;;;;;46.50;28.38;;;6.30;99.90;;;;;;5051757;28;20071;-58
2021/11/24 06:05:30;;;;;;;46.35;28.95;;;6.20;99.90;;;;;;5052399;28;20067;-58
2021/11/24 06:07:56;;;;;;;47.60;28.67;;;6.20;99.90;;;;;;5041411;28;20120;-57
2021/11/24 06:10:22;;;;;;;44.60;27.75;;;6.30;99.90;;;;;;5031267;28;20029;-58
2021/11/24 06:12:48;;;;;;;45.85;28.33;;;6.20;99.90;;;;;;5051438;28;20028;-56
2021/11/24 06:15:17;;;;;;;42.10;27.08;;;6.20;99.90;;;;;;5051860;28;20044;-56
2021/11/24 06:17:44;;;;;;;49.03;28.27;;;6.20;99.90;;;;;;5051471;28;20114;-58
2021/11/24 06:20:11;;;;;;;48.00;28.90;;;6.20;99.90;;;;;;5049682;28;20112;-61
2021/11/24 06:22:38;;;;;;;46.72;27.35;;;6.10;99.90;;;;;;5050288;28;20071;-55
2021/11/24 06:25:05;;;;;;;46.72;28.73;;;6.20;99.90;;;;;;5051874;28;20105;-54
2021/11/24 06:27:30;;;;;;;47.90;28.38;;;6.20;99.90;;;;;;5053761;28;20033;-56
2021/11/24 06:29:56;;;;;;;49.00;28.45;;;6.10;99.90;;;;;;5041884;28;20102;-59
2021/11/24 06:32:22;;;;;;;49.03;29.73;;;6.10;99.90;;;;;;5039441;28;20033;-60
2021/11/24 06:34:48;;;;;;;46.67;28.67;;;6.20;99.90;;;;;;5042383;28;20121;-56
2021/11/24 06:37:13;;;;;;;44.65;27.48;;;6.30;99.90;;;;;;5042104;28;20479;-56
2021/11/24 06:39:39;;;;;;;47.95;28.17;;;6.20;99.90;;;;;;5034045;28;20033;-56
2021/11/24 06:42:05;;;;;;;50.55;30.55;;;6.20;99.90;;;;;;5039624;28;20076;-60
2021/11/24 06:44:30;;;;;;;48.50;28.90;;;6.20;99.90;;;;;;5051588;28;20043;-57
2021/11/24 06:46:56;;;;;;;48.17;28.85;;;6.20;99.90;;;;;;5051218;28;20075;-56
2021/11/24 06:49:23;;;;;;;51.60;30.95;;;6.30;99.90;;;;;;5045440;28;20132;-56
2021/11/24 06:51:49;;;;;;;52.35;28.42;;;6.30;99.90;;;;;;5036619;28;20055;-60
2021/11/24 06:54:18;;;;;;;48.53;29.38;;;6.20;99.90;;;;;;5042385;28;20041;-57
2021/11/24 06:56:48;;;;;;;50.20;28.80;;;6.30;99.90;;;;;;5046854;28;20033;-59
2021/11/24 06:59:14;;;;;;;47.85;28.25;;;6.30;99.90;;;;;;5042348;28;20066;-60
2021/11/24 07:01:40;;;;;;;51.58;29.95;;;6.30;99.90;;;;;;5038004;28;20120;-59
2021/11/24 07:04:06;;;;;;;50.25;29.73;;;6.20;99.90;;;;;;5044293;28;20032;-55
2021/11/24 07:06:32;;;;;;;49.35;29.88;;;6.30;99.90;;;;;;5041394;28;20408;-57
2021/11/24 07:08:58;;;;;;;47.72;28.77;;;6.40;99.90;;;;;;5044033;28;20401;-56
2021/11/24 07:11:28;;;;;;;48.90;29.33;;;6.30;99.90;;;;;;5039865;28;20044;-56
2021/11/24 07:13:54;;;;;;;50.20;27.52;;;6.30;99.90;;;;;;5053903;28;20075;-56
2021/11/24 07:16:20;;;;;;;47.80;28.27;;;6.30;99.90;;;;;;5053319;28;20575;-58
2021/11/24 07:18:45;;;;;;;50.00;28.23;;;6.30;99.90;;;;;;5054252;28;20160;-60
2021/11/24 07:21:12;;;;;;;52.90;29.17;;;6.30;99.90;;;;;;5047629;28;20025;-59
2021/11/24 07:23:37;;;;;;;52.75;29.98;;;6.30;99.90;;;;;;5037305;28;20033;-58
2021/11/24 07:26:03;;;;;;;51.58;29.80;;;6.30;99.90;;;;;;5035019;28;20041;-56
2021/11/24 07:28:29;;;;;;;56.15;31.08;;;6.40;99.90;;;;;;5034849;28;20045;-56
2021/11/24 07:30:54;;;;;;;52.20;27.60;;;6.40;99.90;;;;;;5034317;28;20076;-55
2021/11/24 07:33:20;;;;;;;52.03;29.67;;;6.40;99.90;;;;;;5035139;28;20061;-55
2021/11/24 07:35:46;;;;;;;48.20;28.98;;;6.40;99.90;;;;;;5034603;28;20069;-59
2021/11/24 07:38:11;;;;;;;49.03;28.52;;;6.40;99.90;;;;;;5034546;28;20469;-55
2021/11/24 07:40:38;;;;;;;50.13;28.63;;;6.40;99.90;;;;;;5034333;28;20437;-54
2021/11/24 07:43:04;;;;;;;58.70;31.83;;;6.30;99.90;;;;;;5068814;28;20426;-57
2021/11/24 07:45:30;;;;;;;46.92;28.42;;;6.40;99.90;;;;;;5069421;28;20036;-58
2021/11/24 07:47:56;;;;;;;48.15;27.33;;;6.40;99.90;;;;;;5054297;28;20108;-53
2021/11/24 07:50:21;;;;;;;59.63;30.45;;;6.40;99.90;;;;;;5053488;28;20425;-55
2021/11/24 07:52:47;;;;;;;51.15;29.52;;;6.40;99.90;;;;;;5052926;28;20045;-56
2021/11/24 07:55:13;;;;;;;51.90;29.38;;;6.30;99.90;;;;;;5052304;28;20041;-56
2021/11/24 07:57:38;;;;;;;50.13;27.50;;;6.30;99.90;;;;;;5053780;28;20064;-56
2021/11/24 08:00:07;;;;;;;60.42;30.20;;;6.30;99.90;;;;;;5052755;28;20032;-59
2021/11/24 08:02:32;;;;;;;55.00;30.05;;;6.40;99.90;;;;;;5035462;28;20358;-60
2021/11/24 08:04:58;;;;;;;53.70;28.90;;;6.40;99.90;;;;;;5048959;28;20029;-55
2021/11/24 08:07:24;;;;;;;55.42;28.50;;;6.40;99.90;;;;;;5053941;28;20044;-56
2021/11/24 08:09:51;;;;;;;54.65;30.00;;;6.40;99.90;;;;;;5053438;28;20033;-58
2021/11/24 08:12:17;;;;;;;56.58;30.65;;;6.40;99.90;;;;;;5055385;28;20036;-60
2021/11/24 08:14:43;;;;;;;54.72;30.30;;;6.40;99.90;;;;;;5057440;28;20032;-57
2021/11/24 08:17:09;;;;;;;57.88;30.45;;;6.40;99.90;;;;;;5054102;28;20370;-55
2021/11/24 08:19:34;;;;;;;59.10;31.23;;;6.40;99.90;;;;;;5053761;28;20033;-57
2021/11/24 08:22:00;;;;;;;55.33;31.35;;;6.40;99.90;;;;;;5054062;28;20037;-56
2021/11/24 08:24:27;;;;;;;52.58;29.35;;;6.40;99.90;;;;;;5051019;28;20531;-55
2021/11/24 08:26:53;;;;;;;58.42;30.65;;;6.60;99.90;;;;;;5051237;28;20034;-57
2021/11/24 08:29:19;;;;;;;53.70;31.08;;;6.70;99.90;;;;;;5041260;28;20379;-56
2021/11/24 08:31:45;;;;;;;56.45;31.05;;;6.70;99.90;;;;;;5045542;28;20040;-59
2021/11/24 08:34:12;;;;;;;54.63;29.08;;;6.60;99.90;;;;;;5043878;28;20376;-57
2021/11/24 08:36:39;;;;;;;55.22;28.58;;;6.90;99.90;;;;;;5042473;28;20041;-56
2021/11/24 08:39:06;;;;;;;50.05;27.50;;;6.90;99.90;;;;;;5045982;28;20032;-59
2021/11/24 08:41:32;;;;;;;51.85;28.35;;;6.80;99.90;;;;;;5046620;28;20035;-60
2021/11/24 08:43:58;;;;;;;53.05;28.48;;;6.80;99.90;;;;;;5041511;28;20037;-59
2021/11/24 08:46:23;;;;;;;60.40;30.38;;;6.70;99.90;;;;;;5044716;28;20493;-56
2021/11/24 08:48:49;;;;;;;51.75;29.50;;;6.70;99.90;;;;;;5042830;28;20029;-54
2021/11/24 08:51:15;;;;;;;55.47;29.58;;;6.70;99.90;;;;;;5043277;28;20509;-56
2021/11/24 08:53:41;;;;;;;50.95;27.33;;;6.70;99.90;;;;;;5041799;28;20068;-59
2021/11/24 08:56:07;;;;;;;55.75;28.98;;;6.80;99.90;;;;;;5043325;28;20547;-53
2021/11/24 08:58:33;;;;;;;51.17;27.60;;;6.90;99.90;;;;;;5050028;28;20044;-56
2021/11/24 09:00:58;;;;;;;54.17;29.10;;;6.90;99.90;;;;;;5052463;28;20056;-54
2021/11/24 09:03:24;;;;;;;53.20;27.88;;;6.90;99.90;;;;;;5052204;28;20029;-60
2021/11/24 09:05:50;;;;;;;50.45;26.40;;;7.00;99.90;;;;;;5064279;28;20372;-57
2021/11/24 09:08:16;;;;;;;48.13;26.25;;;7.00;99.90;;;;;;5058723;28;20044;-58
2021/11/24 09:10:42;;;;;;;54.42;27.55;;;6.90;99.90;;;;;;5067652;28;20546;-56
2021/11/24 09:13:08;;;;;;;48.38;26.67;;;6.80;99.90;;;;;;5056867;28;20677;-56
2021/11/24 09:15:34;;;;;;;52.40;28.50;;;7.00;99.90;;;;;;5064898;28;20040;-58
2021/11/24 09:18:00;;;;;;;53.42;27.63;;;7.00;99.90;;;;;;5064577;28;20032;-55
2021/11/24 09:20:26;;;;;;;52.20;26.98;;;7.00;99.90;;;;;;5056302;28;20071;-55
2021/11/24 09:22:52;;;;;;;48.35;25.15;;;7.20;99.90;;;;;;5056205;28;20029;-57
2021/11/24 09:25:23;;;;;;;46.38;27.45;;;7.20;99.90;;;;;;5066804;28;20480;-54
2021/11/24 09:30:19;;;;;;;50.72;27.10;;;7.20;99.90;;;;;;5043971;28;20041;-59
2021/11/24 09:32:45;;;;;;;49.80;28.25;;;7.20;99.90;;;;;;5043747;28;20029;-59
2021/11/24 09:35:12;;;;;;;52.13;27.33;;;7.30;99.90;;;;;;5040126;28;20034;-57
2021/11/24 09:37:38;;;;;;;47.00;26.65;;;7.30;99.90;;;;;;5040835;28;20044;-54
2021/11/24 09:40:05;;;;;;;46.92;25.65;;;7.30;99.90;;;;;;5043060;28;20100;-59
2021/11/24 09:42:34;;;;;;;50.78;27.88;;;7.30;99.90;;;;;;5045606;28;20059;-56
2021/11/24 09:45:00;;;;;;;46.15;24.65;;;7.30;99.90;;;;;;5044068;28;20025;-58
2021/11/24 09:47:26;;;;;;;46.15;24.83;;;7.40;99.90;;;;;;5045348;28;20110;-56
2021/11/24 09:49:59;;;;;;;50.25;26.40;;;7.40;99.90;;;;;;5043567;28;20088;-57
2021/11/24 09:52:27;;;;;;;48.17;26.13;;;7.30;99.90;;;;;;5045065;28;20057;-58
2021/11/24 09:54:53;;;;;;;48.55;25.85;;;7.30;99.90;;;;;;5043026;28;20037;-54
2021/11/24 09:57:23;;;;;;;46.47;24.63;;;7.40;99.90;;;;;;5036583;28;20029;-56
2021/11/24 09:59:49;;;;;;;47.47;23.27;;;7.40;99.90;;;;;;5044361;28;20445;-57
2021/11/24 10:02:16;;;;;;;46.92;24.33;;;7.50;99.90;;;;;;5043593;28;20112;-57
2021/11/24 10:04:46;;;;;;;45.53;24.13;;;7.60;99.90;;;;;;5039818;28;20029;-57
2021/11/24 10:07:14;;;;;;;44.38;26.02;;;7.60;99.90;;;;;;5047520;28;20032;-58
2021/11/24 10:09:40;;;;;;;47.88;24.92;;;7.60;99.90;;;;;;5051420;28;20052;-54
2021/11/24 10:12:07;;;;;;;44.35;25.55;;;7.70;99.90;;;;;;5050387;28;20037;-55
2021/11/24 10:14:33;;;;;;;49.03;26.73;;;7.60;99.90;;;;;;5052113;28;20112;-58
2021/11/24 10:17:10;;;;;;;49.63;25.05;;;7.60;99.90;;;;;;5051487;28;20040;-57
2021/11/24 10:19:36;;;;;;;48.60;25.38;;;7.70;99.90;;;;;;5051552;28;20504;-58
2021/11/24 10:22:05;;;;;;;44.22;25.83;;;7.80;99.90;;;;;;5050944;28;20037;-52
2021/11/24 10:24:35;;;;;;;45.28;24.33;;;7.80;99.90;;;;;;5051848;28;20116;-53
2021/11/24 10:27:03;;;;;;;42.85;24.83;;;7.90;99.90;;;;;;5052257;28;20045;-54
2021/11/24 10:29:29;;;;;;;47.13;24.05;;;7.90;99.90;;;;;;5050432;28;20068;-57
2021/11/24 10:31:58;;;;;;;46.65;23.60;;;8.00;99.90;;;;;;5051944;28;20029;-51
2021/11/24 10:34:32;;;;;;;44.25;24.65;;;7.90;99.90;;;;;;5051743;28;20033;-55
2021/11/24 10:37:05;;;;;;;45.13;24.08;;;8.00;99.90;;;;;;5051391;28;20040;-58
2021/11/24 10:39:53;;;;;;;40.88;24.02;;;8.00;99.90;;;;;;5051454;28;20037;-56
2021/11/24 10:42:30;;;;;;;44.03;22.80;;;8.10;99.90;;;;;;5062943;28;20387;-57
2021/11/24 10:45:00;;;;;;;45.80;24.95;;;8.00;99.90;;;;;;5071600;28;20028;-57
2021/11/24 10:47:27;;;;;;;38.38;22.20;;;8.10;99.90;;;;;;5071016;28;20142;-56
2021/11/24 10:49:57;;;;;;;43.80;22.77;;;8.10;99.90;;;;;;5075114;28;20036;-57
2021/11/24 10:52:36;;;;;;;40.80;22.33;;;8.20;99.90;;;;;;5075786;28;20039;-59
2021/11/24 10:55:13;;;;;;;33.58;19.70;;;8.20;99.90;;;;;;5075914;28;20031;-57
2021/11/24 10:57:42;;;;;;;38.03;21.05;;;8.40;99.90;;;;;;5075246;28;20034;-59
2021/11/24 11:00:13;;;;;;;36.03;22.08;;;8.30;99.90;;;;;;5075441;28;20033;-53
2021/11/24 11:02:44;;;;;;;42.60;22.15;;;8.30;99.90;;;;;;5074969;28;20028;-58
2021/11/24 11:05:24;;;;;;;37.47;22.20;;;8.20;99.90;;;;;;5075235;28;20029;-55
2021/11/24 11:07:50;;;;;;;36.80;21.25;;;8.20;99.90;;;;;;5074190;28;20036;-55
2021/11/24 11:10:16;;;;;;;34.38;19.65;;;8.30;99.90;;;;;;5074509;28;20555;-52
2021/11/24 11:12:48;;;;;;;33.08;19.30;;;8.20;99.90;;;;;;5075482;28;20387;-57
2021/11/24 11:15:21;;;;;;;35.83;20.55;;;8.30;99.90;;;;;;5075076;28;20119;-56
2021/11/24 11:17:50;;;;;;;39.53;22.53;;;8.40;99.90;;;;;;5073495;28;20053;-57
2021/11/24 11:20:16;;;;;;;38.92;21.60;;;8.30;99.90;;;;;;5074802;28;20656;-58
2021/11/24 11:22:42;;;;;;;36.00;20.10;;;8.30;99.90;;;;;;5058008;28;20021;-59
2021/11/24 11:25:09;;;;;;;37.40;21.63;;;8.40;99.90;;;;;;5055077;28;20453;-51
2021/11/24 11:27:34;;;;;;;32.60;19.55;;;8.50;99.90;;;;;;5054567;28;20127;-53
2021/11/24 11:30:02;;;;;;;33.08;19.45;;;8.60;99.90;;;;;;5054018;28;20113;-56
2021/11/24 11:32:28;;;;;;;32.13;19.13;;;8.60;99.90;;;;;;5055351;28;20060;-60
2021/11/24 11:34:55;;;;;;;35.60;21.70;;;8.80;99.90;;;;;;5054878;28;20472;-56
2021/11/24 11:37:23;;;;;;;29.75;17.67;;;8.70;99.90;;;;;;5054301;28;20037;-58
2021/11/24 11:39:48;;;;;;;26.92;17.35;;;8.60;99.90;;;;;;5053448;28;20029;-56
2021/11/24 11:42:16;;;;;;;28.60;18.23;;;8.60;99.90;;;;;;5065513;28;20174;-57
2021/11/24 11:44:42;;;;;;;25.40;16.35;;;8.60;99.90;;;;;;5074333;28;20044;-56
2021/11/24 11:47:07;;;;;;;22.70;14.13;;;8.60;99.90;;;;;;5074173;28;20036;-55
2021/11/24 11:49:37;;;;;;;22.85;13.48;;;8.70;99.90;;;;;;5072757;28;20036;-56
2021/11/24 11:52:10;;;;;;;21.52;12.63;;;8.80;99.90;;;;;;5074605;28;20121;-54
2021/11/24 11:54:36;;;;;;;25.42;15.13;;;8.90;99.90;;;;;;5074186;28;20028;-57
2021/11/24 11:57:06;;;;;;;24.63;15.38;;;8.90;99.90;;;;;;5074000;28;20102;-58
2021/11/24 11:59:38;;;;;;;22.00;14.07;;;8.70;99.90;;;;;;5073627;28;20062;-60
2021/11/24 12:02:05;;;;;;;21.15;15.20;;;8.70;99.90;;;;;;5074306;28;20028;-60
2021/11/24 12:04:50;;;;;;;21.20;14.15;;;8.70;99.90;;;;;;5073902;28;20400;-59
2021/11/24 12:07:19;;;;;;;;;;;8.60;99.90;;;;;;5074128;28;20438;-59
2021/11/24 12:09:50;;;;;;;27.13;17.42;;;8.60;99.90;;;;;;5073252;28;20240;-57
2021/11/24 12:12:31;;;;;;;33.13;21.88;;;8.60;99.90;;;;;;5072713;28;20040;-53
2021/11/24 12:15:24;;;;;;;23.25;15.20;;;8.70;99.90;;;;;;5074304;28;20134;-58
2021/11/24 12:18:14;;;;;;;24.13;13.77;;;8.60;99.90;;;;;;5073135;28;20068;-57
2021/11/24 12:20:44;;;;;;;20.67;13.70;;;8.70;99.90;;;;;;5073327;28;20542;-56
2021/11/24 12:23:15;;;;;;;20.88;13.00;;;8.70;99.90;;;;;;5053801;28;20027;-52
2021/11/24 12:25:43;;;;;;;17.45;11.95;;;8.80;99.90;;;;;;5053441;28;20392;-59
2021/11/24 12:28:13;;;;;;;18.73;11.80;;;8.80;99.90;;;;;;5053660;28;20387;-55
2021/11/24 12:30:48;;;;;;;26.42;16.63;;;8.80;99.90;;;;;;5053033;28;20040;-55
2021/11/24 12:33:22;;;;;;;17.90;12.20;;;8.90;99.90;;;;;;5053421;28;20035;-56
2021/11/24 12:35:53;;;;;;;26.75;14.18;;;8.90;99.90;;;;;;5052180;28;20043;-59
2021/11/24 12:38:21;;;;;;;20.67;13.48;;;8.90;99.90;;;;;;5053303;28;20484;-56
2021/11/24 12:40:50;;;;;;;24.25;15.57;;;8.80;99.90;;;;;;5053148;28;20029;-51
2021/11/24 12:43:18;;;;;;;18.40;12.93;;;8.70;99.90;;;;;;5072680;28;20024;-58